createdAt,value
2023-01-11T00:00:55.872Z,100290.00
2023-01-11T00:03:22.783Z,100293.97
2023-01-11T00:05:49.708Z,100282.22
2023-01-11T00:08:16.887Z,100279.47
2023-01-11T00:10:43.921Z,100263.38
2023-01-11T00:13:11.026Z,100277.59
2023-01-11T00:15:39.192Z,100256.75
2023-01-11T00:18:06.524Z,100272.09
2023-01-11T00:20:33.685Z,100260.38
2023-01-11T00:23:00.937Z,100256.44
2023-01-11T00:25:27.834Z,100256.44
2023-01-11T00:27:55.237Z,100254.13
2023-01-11T00:30:22.854Z,100269.09
2023-01-11T00:32:49.785Z,100262.00
2023-01-11T00:35:16.981Z,100256.50
2023-01-11T00:37:43.912Z,100262.00
2023-01-11T00:40:11.255Z,100252.59
2023-01-11T00:42:56.823Z,100263.69
2023-01-11T00:45:42.523Z,100263.28
2023-01-11T00:48:10.887Z,100258.22
2023-01-11T00:50:39.752Z,100260.19
2023-01-11T00:53:08.346Z,100261.03
2023-01-11T00:55:35.446Z,100266.19
2023-01-11T00:58:03.418Z,100276.81
2023-01-11T01:00:30.521Z,100264.66
2023-01-11T01:02:57.625Z,100267.81
2023-01-11T01:05:24.633Z,100271.03
2023-01-11T01:07:51.999Z,100264.78
2023-01-11T01:10:20.065Z,100263.25
2023-01-11T01:13:05.930Z,100258.53
2023-01-11T01:15:33.639Z,100253.06
2023-01-11T01:18:00.724Z,100257.84
2023-01-11T01:20:28.026Z,100255.53
2023-01-11T01:22:55.061Z,100251.25
2023-01-11T01:25:22.389Z,100258.78
2023-01-11T01:27:49.632Z,100254.84
2023-01-11T01:30:16.837Z,100263.56
2023-01-11T01:32:44.283Z,100258.47
2023-01-11T01:35:11.216Z,100246.72
2023-01-11T01:37:38.202Z,100260.13
2023-01-11T01:40:06.333Z,100254.63
2023-01-11T01:42:33.487Z,100256.97
2023-01-11T01:45:38.757Z,100265.66
2023-01-11T01:48:06.983Z,100271.63
2023-01-11T01:50:50.446Z,100264.50
2023-01-11T01:53:23.995Z,100263.34
2023-01-11T01:55:58.334Z,100281.44
2023-01-11T01:58:32.178Z,100273.56
2023-01-11T02:01:19.140Z,100267.69
2023-01-11T02:03:47.850Z,100277.47
2023-01-11T02:06:15.089Z,100271.16
2023-01-11T02:08:46.912Z,100275.47
2023-01-11T02:11:31.735Z,100276.25
2023-01-11T02:14:03.946Z,100284.09
2023-01-11T02:16:30.888Z,100284.91
2023-01-11T02:18:58.848Z,100267.13
2023-01-11T02:21:32.957Z,100282.88
2023-01-11T02:24:27.207Z,100289.16
2023-01-11T02:27:30.001Z,100291.50
2023-01-11T02:30:25.056Z,100285.63
2023-01-11T02:32:58.483Z,100282.44
2023-01-11T02:35:25.233Z,100284.03
2023-01-11T02:38:16.984Z,100290.34
2023-01-11T02:41:19.071Z,100298.28
2023-01-11T02:44:14.476Z,100295.19
2023-01-11T02:46:46.590Z,100299.16
2023-01-11T02:49:38.164Z,100295.66
2023-01-11T02:52:17.951Z,100299.25
2023-01-11T02:54:48.128Z,100306.00
2023-01-11T02:57:16.581Z,100308.78
2023-01-11T02:59:49.259Z,100316.69
2023-01-11T03:02:17.023Z,100315.91
2023-01-11T03:04:44.749Z,100319.06
2023-01-11T03:07:26.995Z,100324.59
2023-01-11T03:10:05.834Z,100338.03
2023-01-11T03:12:57.668Z,100337.66
2023-01-11T03:15:24.517Z,100332.94
2023-01-11T03:18:14.750Z,100332.59
2023-01-11T03:20:49.326Z,100338.53
2023-01-11T03:23:29.519Z,100347.94
2023-01-11T03:26:06.544Z,100343.97
2023-01-11T03:29:04.173Z,100341.22
2023-01-11T03:31:40.185Z,100350.75
2023-01-11T03:34:25.608Z,100357.44
2023-01-11T03:37:42.030Z,100357.00
2023-01-11T03:40:24.337Z,100368.41
2023-01-11T03:43:12.630Z,100370.34
2023-01-11T03:45:49.272Z,100369.84
2023-01-11T03:48:27.485Z,100376.22
2023-01-11T03:50:56.563Z,100384.41
2023-01-11T03:53:26.439Z,100403.19
2023-01-11T03:55:57.804Z,100392.66
2023-01-11T03:58:27.765Z,100379.69
2023-01-11T04:00:56.623Z,100381.16
2023-01-11T04:03:26.160Z,100384.22
2023-01-11T04:05:58.511Z,100388.84
2023-01-11T04:08:25.992Z,100384.44
2023-01-11T04:10:52.889Z,100386.06
2023-01-11T04:13:19.899Z,100391.09
2023-01-11T04:15:46.879Z,100398.94
2023-01-11T04:18:14.646Z,100403.28
2023-01-11T04:20:41.601Z,100395.88
2023-01-11T04:23:10.435Z,100411.75
2023-01-11T04:25:37.356Z,100414.25
2023-01-11T04:28:04.637Z,100418.69
2023-01-11T04:30:31.480Z,100413.19
2023-01-11T04:32:59.277Z,100418.31
2023-01-11T04:35:27.016Z,100424.63
2023-01-11T04:37:57.736Z,100417.91
2023-01-11T04:40:25.086Z,100424.94
2023-01-11T04:42:52.037Z,100429.97
2023-01-11T04:45:19.447Z,100435.00
2023-01-11T04:47:46.251Z,100444.75
2023-01-11T04:50:13.363Z,100448.63
2023-01-11T04:52:41.796Z,100451.28
2023-01-11T04:55:09.624Z,100456.78
2023-01-11T04:57:36.773Z,100457.88
2023-01-11T05:00:08.803Z,100460.91
2023-01-11T05:02:35.739Z,100469.50
2023-01-11T05:05:03.814Z,100474.25
2023-01-11T05:07:30.634Z,100476.53
2023-01-11T05:09:57.521Z,100479.28
2023-01-11T05:12:25.177Z,100480.81
2023-01-11T05:14:52.067Z,100481.97
2023-01-11T05:17:19.468Z,100483.56
2023-01-11T05:19:46.469Z,100496.97
2023-01-11T05:22:13.326Z,100486.31
2023-01-11T05:24:40.210Z,100487.84
2023-01-11T05:27:07.321Z,100483.25
2023-01-11T05:29:34.276Z,100483.38
2023-01-11T05:32:01.209Z,100487.03
2023-01-11T05:34:28.291Z,100475.75
2023-01-11T05:36:55.503Z,100488.09
2023-01-11T05:39:23.969Z,100483.69
2023-01-11T05:41:51.000Z,100483.94
2023-01-11T05:44:37.532Z,100488.13
2023-01-11T05:47:04.566Z,100488.03
2023-01-11T05:49:31.392Z,100494.31
2023-01-11T05:51:58.400Z,100489.16
2023-01-11T05:54:25.415Z,100493.53
2023-01-11T05:56:52.441Z,100497.41
2023-01-11T05:59:19.595Z,100512.75
2023-01-11T06:01:46.740Z,100510.00
2023-01-11T06:04:14.607Z,100502.63
2023-01-11T06:06:41.569Z,100522.44
2023-01-11T06:09:08.545Z,100517.78
2023-01-11T06:11:35.578Z,100524.19
2023-01-11T06:14:02.549Z,100526.22
2023-01-11T06:16:29.496Z,100527.47
2023-01-11T06:18:56.424Z,100530.31
2023-01-11T06:21:24.148Z,100537.03
2023-01-11T06:23:51.293Z,100542.63
2023-01-11T06:26:21.593Z,100543.78
2023-01-11T06:28:49.731Z,100556.72
2023-01-11T06:31:18.377Z,100546.81
2023-01-11T06:33:46.155Z,100550.44
2023-01-11T06:36:14.439Z,100549.09
2023-01-11T06:38:42.157Z,100545.88
2023-01-11T06:41:10.252Z,100549.53
2023-01-11T06:43:41.133Z,100545.28
2023-01-11T06:46:16.195Z,100546.78
2023-01-11T06:48:43.815Z,100551.06
2023-01-11T06:51:12.138Z,100548.63
2023-01-11T06:53:40.346Z,100549.72
2023-01-11T06:56:07.825Z,100552.63
2023-01-11T06:58:34.653Z,100559.97
2023-01-11T07:01:02.045Z,100566.06
2023-01-11T07:03:29.179Z,100570.69
2023-01-11T07:05:57.839Z,100571.38
2023-01-11T07:08:26.391Z,100574.56
2023-01-11T07:10:53.447Z,100569.44
2023-01-11T07:13:20.359Z,100571.72
2023-01-11T07:15:50.705Z,100567.41
2023-01-11T07:18:19.759Z,100573.66
2023-01-11T07:20:46.768Z,100579.84
2023-01-11T07:23:14.083Z,100583.63
2023-01-11T07:25:41.313Z,100583.91
2023-01-11T07:28:09.476Z,100583.44
2023-01-11T07:30:56.729Z,100591.56
2023-01-11T07:33:26.419Z,100590.78
2023-01-11T07:35:53.654Z,100593.06
2023-01-11T07:38:20.731Z,100593.06
2023-01-11T07:40:48.047Z,100602.00
2023-01-11T07:43:15.488Z,100601.19
2023-01-11T07:45:46.387Z,100617.66
2023-01-11T07:48:21.045Z,100623.25
2023-01-11T07:50:49.204Z,100624.50
2023-01-11T07:53:16.666Z,100640.66
2023-01-11T07:55:43.958Z,100646.47
2023-01-11T07:58:14.954Z,100640.91
2023-01-11T08:00:42.013Z,100642.03
2023-01-11T08:03:09.684Z,100646.28
2023-01-11T08:05:36.935Z,100657.16
2023-01-11T08:08:04.574Z,100659.91
2023-01-11T08:10:32.067Z,100672.38
2023-01-11T08:13:18.040Z,100672.72
2023-01-11T08:15:45.724Z,100689.56
2023-01-11T08:18:13.481Z,100684.06
2023-01-11T08:20:40.581Z,100690.00
2023-01-11T08:23:09.693Z,100677.31
2023-01-11T08:25:37.358Z,100678.78
2023-01-11T08:28:06.189Z,100675.94
2023-01-11T08:30:33.600Z,100684.19
2023-01-11T08:33:02.030Z,100677.31
2023-01-11T08:35:31.389Z,100682.00
2023-01-11T08:37:58.490Z,100687.38
2023-01-11T08:40:29.539Z,100689.69
2023-01-11T08:42:57.622Z,100694.00
2023-01-11T08:45:25.290Z,100703.16
2023-01-11T08:47:52.537Z,100713.69
2023-01-11T08:50:21.305Z,100714.94
2023-01-11T08:52:51.443Z,100715.84
2023-01-11T08:55:21.586Z,100717.00
2023-01-11T08:57:49.282Z,100722.69
2023-01-11T09:00:16.697Z,100730.84
2023-01-11T09:02:45.704Z,100734.34
2023-01-11T09:05:12.968Z,100733.78
2023-01-11T09:07:40.279Z,100731.28
2023-01-11T09:10:07.774Z,100727.41
2023-01-11T09:12:35.582Z,100731.41
2023-01-11T09:15:02.753Z,100734.72
2023-01-11T09:17:29.947Z,100736.91
2023-01-11T09:19:56.902Z,100741.13
2023-01-11T09:22:24.012Z,100741.00
2023-01-11T09:24:51.073Z,100749.56
2023-01-11T09:27:19.222Z,100748.00
2023-01-11T09:29:46.395Z,100758.63
2023-01-11T09:32:13.543Z,100755.66
2023-01-11T09:34:41.801Z,100760.91
2023-01-11T09:37:09.211Z,100762.16
2023-01-11T09:39:37.287Z,100760.69
2023-01-11T09:42:31.584Z,100766.75
2023-01-11T09:45:23.552Z,100770.41
2023-01-11T09:48:03.889Z,100763.78
2023-01-11T09:50:40.084Z,100765.63
2023-01-11T09:53:19.643Z,100773.16
2023-01-11T09:55:50.481Z,100766.28
2023-01-11T09:58:42.913Z,100769.97
2023-01-11T10:01:31.302Z,100763.44
2023-01-11T10:04:24.206Z,100760.44
2023-01-11T10:07:16.939Z,100762.59
2023-01-11T10:18:31.139Z,100765.47
2023-01-11T10:19:36.030Z,100772.44
2023-01-11T10:22:41.484Z,100773.34
2023-01-11T10:25:22.069Z,100772.19
2023-01-11T10:28:00.673Z,100770.38
2023-01-11T10:30:52.457Z,100765.88
2023-01-11T10:33:37.687Z,100768.47
2023-01-11T10:36:19.167Z,100772.34
2023-01-11T10:38:56.635Z,100770.41
2023-01-11T10:41:38.716Z,100774.28
2023-01-11T10:44:08.830Z,100779.41
2023-01-11T10:46:44.852Z,100775.91
2023-01-11T10:49:56.173Z,100778.66
2023-01-11T10:52:35.793Z,100784.22
2023-01-11T10:55:43.857Z,100778.25
2023-01-11T10:58:39.864Z,100771.78
2023-01-11T11:01:13.273Z,100767.78
2023-01-11T11:03:49.689Z,100765.47
2023-01-11T11:06:54.305Z,100771.34
2023-01-11T11:09:32.362Z,100768.59
2023-01-11T11:12:14.001Z,100765.84
2023-01-11T11:14:57.502Z,100766.97
2023-01-11T11:17:33.497Z,100776.84
2023-01-11T11:20:01.252Z,100775.69
2023-01-11T11:22:28.236Z,100778.88
2023-01-11T11:25:15.470Z,100784.59
2023-01-11T11:27:51.212Z,100788.03
2023-01-11T11:30:38.447Z,100788.81
2023-01-11T11:33:19.289Z,100790.09
2023-01-11T11:35:56.861Z,100788.13
2023-01-11T11:38:25.915Z,100783.78
2023-01-11T11:41:12.101Z,100782.28
2023-01-11T11:43:44.243Z,100783.19
2023-01-11T11:46:18.753Z,100791.44
2023-01-11T11:49:15.706Z,100781.22
2023-01-11T11:51:44.995Z,100786.72
2023-01-11T11:54:43.177Z,100788.88
2023-01-11T11:57:23.386Z,100792.91
2023-01-11T12:00:02.306Z,100785.38
2023-01-11T12:02:33.947Z,100790.25
2023-01-11T12:05:08.290Z,100790.06
2023-01-11T12:07:54.177Z,100792.13
2023-01-11T12:10:25.275Z,100778.81
2023-01-11T12:12:55.707Z,100773.66
2023-01-11T12:15:29.417Z,100779.97
2023-01-11T12:18:21.713Z,100783.50
2023-01-11T12:20:49.696Z,100771.69
2023-01-11T12:23:25.738Z,100780.28
2023-01-11T12:26:04.729Z,100770.91
2023-01-11T12:29:05.945Z,100781.63
2023-01-11T12:31:50.185Z,100780.28
2023-01-11T12:34:29.235Z,100776.69
2023-01-11T12:37:13.911Z,100780.13
2023-01-11T12:40:13.900Z,100764.31
2023-01-11T12:43:05.788Z,100766.81
2023-01-11T12:46:10.149Z,100775.69
2023-01-11T12:48:46.338Z,100774.53
2023-01-11T12:51:31.680Z,100770.19
2023-01-11T12:54:23.929Z,100777.81
2023-01-11T12:56:53.621Z,100777.91
2023-01-11T12:59:44.323Z,100783.69
2023-01-11T13:02:30.659Z,100791.31
2023-01-11T13:05:08.871Z,100773.38
2023-01-11T13:07:50.894Z,100786.94
2023-01-11T13:10:30.598Z,100793.44
2023-01-11T13:13:42.732Z,100774.25
2023-01-11T13:16:33.356Z,100788.38
2023-01-11T13:19:06.037Z,100788.47
2023-01-11T13:21:44.415Z,100801.72
2023-01-11T13:24:16.887Z,100798.34
2023-01-11T13:26:47.691Z,100802.97
2023-01-11T13:29:18.826Z,100794.69
2023-01-11T13:31:49.250Z,100798.06
2023-01-11T13:34:35.775Z,100801.69
2023-01-11T13:37:14.212Z,100795.88
2023-01-11T13:39:57.049Z,100801.03
2023-01-11T13:42:30.889Z,100803.09
2023-01-11T13:45:09.392Z,100784.31
2023-01-11T13:47:48.038Z,100785.19
2023-01-11T13:50:42.383Z,100783.03
2023-01-11T13:53:19.465Z,100783.47
2023-01-11T13:56:06.548Z,100781.44
2023-01-11T13:58:42.748Z,100792.44
2023-01-11T14:01:13.540Z,100789.13
2023-01-11T14:03:51.445Z,100785.72
2023-01-11T14:06:30.949Z,100794.44
2023-01-11T14:09:30.312Z,100781.91
2023-01-11T14:12:19.692Z,100781.53
2023-01-11T14:15:14.955Z,100790.16
2023-01-11T14:17:54.161Z,100777.31
2023-01-11T14:20:42.469Z,100778.19
2023-01-11T14:23:44.255Z,100792.88
2023-01-11T14:26:45.393Z,100793.91
2023-01-11T14:29:34.414Z,100782.25
2023-01-11T14:32:35.215Z,100785.50
2023-01-11T14:35:18.098Z,100780.91
2023-01-11T14:38:16.253Z,100777.97
2023-01-11T14:41:15.192Z,100784.41
2023-01-11T14:44:00.692Z,100784.47
2023-01-11T14:46:40.086Z,100781.16
2023-01-11T14:49:22.225Z,100789.63
2023-01-11T14:51:55.672Z,100789.88
2023-01-11T14:54:30.824Z,100793.63
2023-01-11T14:56:59.137Z,100787.34
2023-01-11T14:59:33.558Z,100780.47
2023-01-11T15:02:03.843Z,100785.84
2023-01-11T15:04:30.855Z,100786.06
2023-01-11T15:06:58.122Z,100776.59
2023-01-11T15:09:46.884Z,100778.09
2023-01-11T15:12:18.126Z,100779.56
2023-01-11T15:14:49.516Z,100776.69
2023-01-11T15:17:38.857Z,100782.06
2023-01-11T15:20:09.997Z,100778.19
2023-01-11T15:22:37.551Z,100781.25
2023-01-11T15:25:19.812Z,100771.09
2023-01-11T15:27:49.473Z,100763.78
2023-01-11T15:30:32.111Z,100751.75
2023-01-11T15:33:18.377Z,100750.84
2023-01-11T15:35:57.848Z,100757.34
2023-01-11T15:38:39.708Z,100752.09
2023-01-11T15:41:33.540Z,100752.41
2023-01-11T15:44:19.356Z,100755.59
2023-01-11T15:47:01.880Z,100758.81
2023-01-11T15:49:38.091Z,100759.47
2023-01-11T15:52:30.054Z,100766.63
2023-01-11T15:55:38.055Z,100759.09
2023-01-11T15:58:25.201Z,100761.38
2023-01-11T16:01:22.797Z,100771.22
2023-01-11T16:04:04.176Z,100771.22
2023-01-11T16:06:31.065Z,100785.38
2023-01-11T16:09:19.605Z,100779.56
2023-01-11T16:12:06.447Z,100776.69
2023-01-11T16:14:58.507Z,100769.81
2023-01-11T16:17:26.459Z,100761.91
2023-01-11T16:19:56.955Z,100767.41
2023-01-11T16:22:28.537Z,100756.78
2023-01-11T16:25:01.493Z,100750.63
2023-01-11T16:27:34.388Z,100760.56
2023-01-11T16:30:02.447Z,100769.72
2023-01-11T16:32:34.545Z,100761.78
2023-01-11T16:35:03.602Z,100767.03
2023-01-11T16:37:40.181Z,100776.06
2023-01-11T16:40:28.197Z,100775.94
2023-01-11T16:42:59.013Z,100784.47
2023-01-11T16:45:40.295Z,100792.53
2023-01-11T16:48:18.070Z,100791.63
2023-01-11T16:51:02.183Z,100789.81
2023-01-11T16:53:30.925Z,100799.97
2023-01-11T16:56:07.967Z,100802.72
2023-01-11T16:58:37.421Z,100796.09
2023-01-11T17:01:07.272Z,100792.06
2023-01-11T17:03:37.160Z,100794.72
2023-01-11T17:06:10.394Z,100786.34
2023-01-11T17:08:42.661Z,100780.38
2023-01-11T17:11:28.283Z,100769.41
2023-01-11T17:14:35.589Z,100769.91
2023-01-11T17:17:07.368Z,100759.84
2023-01-11T17:19:37.314Z,100758.38
2023-01-11T17:22:27.486Z,100758.47
2023-01-11T17:25:01.219Z,100748.66
2023-01-11T17:27:28.152Z,100749.78
2023-01-11T17:29:57.408Z,100752.22
2023-01-11T17:32:35.697Z,100745.25
2023-01-11T17:35:06.898Z,100733.22
2023-01-11T17:37:34.577Z,100735.63
2023-01-11T17:40:02.607Z,100736.22
2023-01-11T17:42:49.174Z,100729.25
2023-01-11T17:45:26.459Z,100733.13
2023-01-11T17:47:55.176Z,100724.78
2023-01-11T17:50:29.119Z,100725.13
2023-01-11T17:53:24.207Z,100718.00
2023-01-11T17:55:52.652Z,100715.19
2023-01-11T17:58:21.873Z,100698.81
2023-01-11T18:01:20.009Z,100696.31
2023-01-11T18:03:57.941Z,100696.75
2023-01-11T18:06:34.748Z,100699.97
2023-01-11T18:09:07.317Z,100695.75
2023-01-11T18:11:38.375Z,100692.31
2023-01-11T18:14:13.941Z,100688.19
2023-01-11T18:16:55.651Z,100683.25
2023-01-11T18:19:44.240Z,100681.88
2023-01-11T18:22:37.807Z,100662.41
2023-01-11T18:25:19.155Z,100671.56
2023-01-11T18:27:47.116Z,100659.88
2023-01-11T18:30:30.291Z,100652.88
2023-01-11T18:33:03.265Z,100642.34
2023-01-11T18:35:30.813Z,100638.81
2023-01-11T18:37:57.802Z,100636.41
2023-01-11T18:40:24.985Z,100628.97
2023-01-11T18:42:53.984Z,100625.09
2023-01-11T18:45:21.996Z,100634.03
2023-01-11T18:47:49.585Z,100626.47
2023-01-11T18:50:19.432Z,100618.59
2023-01-11T18:52:46.774Z,100614.22
2023-01-11T18:55:14.665Z,100606.34
2023-01-11T18:57:42.519Z,100598.13
2023-01-11T19:00:15.065Z,100588.63
2023-01-11T19:02:44.161Z,100597.69
2023-01-11T19:05:13.866Z,100572.50
2023-01-11T19:07:41.058Z,100581.78
2023-01-11T19:10:08.736Z,100568.41
2023-01-11T19:12:35.786Z,100567.25
2023-01-11T19:15:02.713Z,100551.91
2023-01-11T19:17:31.957Z,100548.63
2023-01-11T19:19:59.009Z,100543.28
2023-01-11T19:22:26.767Z,100566.38
2023-01-11T19:24:55.105Z,100560.00
2023-01-11T19:27:23.119Z,100557.59
2023-01-11T19:29:50.058Z,100545.91
2023-01-11T19:32:19.241Z,100563.19
2023-01-11T19:34:46.147Z,100559.75
2023-01-11T19:37:13.427Z,100572.53
2023-01-11T19:39:41.086Z,100557.66
2023-01-11T19:42:07.947Z,100553.53
2023-01-11T19:44:39.005Z,100548.69
2023-01-11T19:47:13.136Z,100552.78
2023-01-11T19:49:41.763Z,100540.28
2023-01-11T19:52:14.477Z,100540.41
2023-01-11T19:54:42.842Z,100535.00
2023-01-11T19:57:14.979Z,100541.31
2023-01-11T19:59:42.656Z,100538.56
2023-01-11T20:02:12.679Z,100544.38
2023-01-11T20:04:40.614Z,100549.06
2023-01-11T20:07:09.693Z,100546.34
2023-01-11T20:09:39.450Z,100550.56
2023-01-11T20:12:08.304Z,100532.50
2023-01-11T20:14:35.709Z,100528.59
2023-01-11T20:17:03.075Z,100528.59
2023-01-11T20:19:30.530Z,100527.47
2023-01-11T20:21:59.120Z,100516.03
2023-01-11T20:24:29.813Z,100518.00
2023-01-11T20:26:59.355Z,100515.31
2023-01-11T20:29:26.918Z,100511.88
2023-01-11T20:31:53.864Z,100507.06
2023-01-11T20:34:21.282Z,100510.75
2023-01-11T20:36:49.366Z,100497.03
2023-01-11T20:39:18.129Z,100489.59
2023-01-11T20:41:49.225Z,100494.50
2023-01-11T20:44:24.005Z,100496.25
2023-01-11T20:46:53.147Z,100491.94
2023-01-11T20:49:23.261Z,100486.78
2023-01-11T20:51:50.849Z,100493.41
2023-01-11T20:54:19.555Z,100492.28
2023-01-11T20:56:47.037Z,100482.09
2023-01-11T20:59:19.607Z,100476.59
2023-01-11T21:01:50.138Z,100488.28
2023-01-11T21:04:20.664Z,100482.25
2023-01-11T21:06:49.956Z,100491.78
2023-01-11T21:09:19.307Z,100491.03
2023-01-11T21:11:53.444Z,100497.66
2023-01-11T21:14:24.004Z,100498.56
2023-01-11T21:16:55.334Z,100495.22
2023-01-11T21:19:23.809Z,100501.69
2023-01-11T21:21:51.922Z,100494.38
2023-01-11T21:24:21.021Z,100490.59
2023-01-11T21:26:49.364Z,100497.66
2023-01-11T21:29:16.484Z,100502.72
2023-01-11T21:31:45.315Z,100501.38
2023-01-11T21:34:13.961Z,100499.53
2023-01-11T21:36:42.621Z,100496.53
2023-01-11T21:39:13.507Z,100490.94
2023-01-11T21:41:55.780Z,100503.41
2023-01-11T21:44:27.278Z,100513.59
2023-01-11T21:46:55.642Z,100504.38
2023-01-11T21:49:24.289Z,100510.47
2023-01-11T21:51:52.282Z,100510.59
2023-01-11T21:54:19.793Z,100511.53
2023-01-11T21:56:48.204Z,100506.50
2023-01-11T21:59:15.377Z,100514.22
2023-01-11T22:01:44.466Z,100514.69
2023-01-11T22:04:14.796Z,100505.66
2023-01-11T22:06:44.173Z,100507.59
2023-01-11T22:09:12.084Z,100500.88
2023-01-11T22:11:39.606Z,100520.19
2023-01-11T22:14:09.003Z,100497.78
2023-01-11T22:16:37.194Z,100494.84
2023-01-11T22:19:09.547Z,100500.47
2023-01-11T22:21:37.836Z,100495.44
2023-01-11T22:24:07.885Z,100504.34
2023-01-11T22:26:39.215Z,100509.03
2023-01-11T22:29:16.708Z,100513.50
2023-01-11T22:31:49.244Z,100521.59
2023-01-11T22:34:16.839Z,100521.13
2023-01-11T22:36:45.519Z,100511.63
2023-01-11T22:39:14.629Z,100512.34
2023-01-11T22:41:42.177Z,100513.41
2023-01-11T22:44:09.842Z,100519.09
2023-01-11T22:46:37.358Z,100510.31
2023-01-11T22:49:06.227Z,100527.38
2023-01-11T22:51:33.374Z,100524.06
2023-01-11T22:54:00.435Z,100533.22
2023-01-11T22:56:29.418Z,100537.69
2023-01-11T22:58:57.219Z,100536.78
2023-01-11T23:01:27.103Z,100535.88
2023-01-11T23:03:57.099Z,100541.59
2023-01-11T23:06:27.677Z,100535.63
2023-01-11T23:08:54.886Z,100543.16
2023-01-11T23:11:44.316Z,100559.63
2023-01-11T23:14:14.611Z,100539.84
2023-01-11T23:16:42.362Z,100548.88
2023-01-11T23:19:10.630Z,100563.16
2023-01-11T23:21:41.030Z,100545.88
2023-01-11T23:24:09.288Z,100536.31
2023-01-11T23:26:36.761Z,100539.41
2023-01-11T23:29:04.371Z,100525.00
2023-01-11T23:31:31.658Z,100536.31
2023-01-11T23:34:01.495Z,100536.41
2023-01-11T23:36:31.633Z,100532.19
2023-01-11T23:38:59.035Z,100544.06
2023-01-11T23:41:45.259Z,100531.97
2023-01-11T23:44:14.178Z,100545.19
2023-01-11T23:47:00.493Z,100541.00
2023-01-11T23:49:28.825Z,100545.59
2023-01-11T23:51:56.282Z,100546.38
2023-01-11T23:54:27.011Z,100529.81
2023-01-11T23:56:54.108Z,100546.16
2023-01-11T23:59:21.261Z,100546.38
